sensor_id;sensor_type;location;lat;lon;timestamp;temperature;humidity
23499;DHT22;11926;48.120;11.562;2022-11-28T00:01:18;3.40;96.40
23499;DHT22;11926;48.120;11.562;2022-11-28T00:04:07;3.50;96.40
23499;DHT22;11926;48.120;11.562;2022-11-28T00:06:54;3.50;96.30
23499;DHT22;11926;48.120;11.562;2022-11-28T00:09:42;3.50;96.30
23499;DHT22;11926;48.120;11.562;2022-11-28T00:12:30;3.50;96.20
23499;DHT22;11926;48.120;11.562;2022-11-28T00:15:18;3.50;96.20
23499;DHT22;11926;48.120;11.562;2022-11-28T00:18:05;3.50;96.30
23499;DHT22;11926;48.120;11.562;2022-11-28T00:20:52;3.50;96.20
23499;DHT22;11926;48.120;11.562;2022-11-28T00:23:45;3.50;96.20
23499;DHT22;11926;48.120;11.562;2022-11-28T00:26:35;3.50;96.20
23499;DHT22;11926;48.120;11.562;2022-11-28T00:29:24;3.50;96.30
23499;DHT22;11926;48.120;11.562;2022-11-28T00:32:11;3.50;96.30
23499;DHT22;11926;48.120;11.562;2022-11-28T00:34:59;3.50;96.20
23499;DHT22;11926;48.120;11.562;2022-11-28T00:37:46;3.60;96.20
23499;DHT22;11926;48.120;11.562;2022-11-28T00:40:33;3.60;96.20
23499;DHT22;11926;48.120;11.562;2022-11-28T00:43:20;3.60;96.10
23499;DHT22;11926;48.120;11.562;2022-11-28T00:46:08;3.70;96.00
23499;DHT22;11926;48.120;11.562;2022-11-28T00:48:57;3.70;96.00
23499;DHT22;11926;48.120;11.562;2022-11-28T00:51:44;3.70;95.90
23499;DHT22;11926;48.120;11.562;2022-11-28T00:54:31;3.60;95.90
23499;DHT22;11926;48.120;11.562;2022-11-28T00:57:18;3.60;96.00
23499;DHT22;11926;48.120;11.562;2022-11-28T01:00:06;3.50;95.90
23499;DHT22;11926;48.120;11.562;2022-11-28T01:02:55;3.50;96.00
23499;DHT22;11926;48.120;11.562;2022-11-28T01:05:42;3.50;96.00
23499;DHT22;11926;48.120;11.562;2022-11-28T01:08:30;3.40;96.10
23499;DHT22;11926;48.120;11.562;2022-11-28T01:11:16;3.40;96.00
23499;DHT22;11926;48.120;11.562;2022-11-28T01:14:04;3.40;96.00
23499;DHT22;11926;48.120;11.562;2022-11-28T01:16:52;3.40;96.00
23499;DHT22;11926;48.120;11.562;2022-11-28T01:19:41;3.30;96.00
23499;DHT22;11926;48.120;11.562;2022-11-28T01:22:28;3.30;96.10
23499;DHT22;11926;48.120;11.562;2022-11-28T01:25:15;3.30;96.10
23499;DHT22;11926;48.120;11.562;2022-11-28T01:28:03;3.30;96.10
23499;DHT22;11926;48.120;11.562;2022-11-28T01:30:50;3.30;96.10
23499;DHT22;11926;48.120;11.562;2022-11-28T01:33:37;3.30;96.10
23499;DHT22;11926;48.120;11.562;2022-11-28T01:36:26;3.30;96.10
23499;DHT22;11926;48.120;11.562;2022-11-28T01:39:13;3.30;96.10
23499;DHT22;11926;48.120;11.562;2022-11-28T01:42:01;3.30;96.10
23499;DHT22;11926;48.120;11.562;2022-11-28T01:45:05;3.30;96.10
23499;DHT22;11926;48.120;11.562;2022-11-28T01:47:55;3.30;96.00
23499;DHT22;11926;48.120;11.562;2022-11-28T01:50:44;3.20;96.10
23499;DHT22;11926;48.120;11.562;2022-11-28T01:53:53;3.20;96.10
23499;DHT22;11926;48.120;11.562;2022-11-28T01:56:46;3.30;96.10
23499;DHT22;11926;48.120;11.562;2022-11-28T01:59:38;3.20;96.10
23499;DHT22;11926;48.120;11.562;2022-11-28T02:02:32;3.20;96.10
23499;DHT22;11926;48.120;11.562;2022-11-28T02:05:20;3.20;96.10
23499;DHT22;11926;48.120;11.562;2022-11-28T02:08:08;3.20;96.10
23499;DHT22;11926;48.120;11.562;2022-11-28T02:11:11;3.30;96.20
23499;DHT22;11926;48.120;11.562;2022-11-28T02:14:12;3.30;96.10
23499;DHT22;11926;48.120;11.562;2022-11-28T02:17:11;3.30;96.10
23499;DHT22;11926;48.120;11.562;2022-11-28T02:20:23;3.30;96.10
23499;DHT22;11926;48.120;11.562;2022-11-28T02:23:22;3.40;96.20
23499;DHT22;11926;48.120;11.562;2022-11-28T02:26:30;3.40;96.10
23499;DHT22;11926;48.120;11.562;2022-11-28T02:35:51;3.40;96.10
23499;DHT22;11926;48.120;11.562;2022-11-28T02:38:54;3.40;96.10
23499;DHT22;11926;48.120;11.562;2022-11-28T02:41:44;3.50;96.10
23499;DHT22;11926;48.120;11.562;2022-11-28T02:44:38;3.50;96.10
23499;DHT22;11926;48.120;11.562;2022-11-28T02:47:31;3.50;96.10
23499;DHT22;11926;48.120;11.562;2022-11-28T02:50:25;3.50;96.00
23499;DHT22;11926;48.120;11.562;2022-11-28T02:53:19;3.50;96.10
23499;DHT22;11926;48.120;11.562;2022-11-28T02:56:08;3.50;96.50
23499;DHT22;11926;48.120;11.562;2022-11-28T02:58:56;3.40;96.00
23499;DHT22;11926;48.120;11.562;2022-11-28T03:01:43;3.50;96.10
23499;DHT22;11926;48.120;11.562;2022-11-28T03:04:38;3.50;96.00
23499;DHT22;11926;48.120;11.562;2022-11-28T03:07:45;3.50;96.40
23499;DHT22;11926;48.120;11.562;2022-11-28T03:10:42;3.50;96.10
23499;DHT22;11926;48.120;11.562;2022-11-28T03:13:36;3.40;96.10
23499;DHT22;11926;48.120;11.562;2022-11-28T03:16:28;3.40;96.10
23499;DHT22;11926;48.120;11.562;2022-11-28T03:19:19;3.40;96.10
23499;DHT22;11926;48.120;11.562;2022-11-28T03:22:11;3.40;96.10
23499;DHT22;11926;48.120;11.562;2022-11-28T03:25:09;3.40;96.00
23499;DHT22;11926;48.120;11.562;2022-11-28T03:28:03;3.40;96.00
23499;DHT22;11926;48.120;11.562;2022-11-28T03:30:57;3.40;96.00
23499;DHT22;11926;48.120;11.562;2022-11-28T03:33:49;3.30;96.00
23499;DHT22;11926;48.120;11.562;2022-11-28T03:36:41;3.30;96.10
23499;DHT22;11926;48.120;11.562;2022-11-28T03:39:31;3.30;96.10
23499;DHT22;11926;48.120;11.562;2022-11-28T03:42:22;3.20;96.00
23499;DHT22;11926;48.120;11.562;2022-11-28T03:45:14;3.20;96.10
23499;DHT22;11926;48.120;11.562;2022-11-28T03:48:07;3.20;96.10
23499;DHT22;11926;48.120;11.562;2022-11-28T03:50:59;3.10;96.10
23499;DHT22;11926;48.120;11.562;2022-11-28T03:53:52;3.10;96.10
23499;DHT22;11926;48.120;11.562;2022-11-28T03:56:44;3.10;96.20
23499;DHT22;11926;48.120;11.562;2022-11-28T03:59:37;3.10;96.20
23499;DHT22;11926;48.120;11.562;2022-11-28T04:02:31;3.10;96.30
23499;DHT22;11926;48.120;11.562;2022-11-28T04:05:23;3.10;96.30
23499;DHT22;11926;48.120;11.562;2022-11-28T04:08:16;3.10;96.40
23499;DHT22;11926;48.120;11.562;2022-11-28T04:11:07;3.10;96.40
23499;DHT22;11926;48.120;11.562;2022-11-28T04:14:03;3.10;96.30
23499;DHT22;11926;48.120;11.562;2022-11-28T04:16:57;3.10;96.30
23499;DHT22;11926;48.120;11.562;2022-11-28T04:19:50;3.10;96.30
23499;DHT22;11926;48.120;11.562;2022-11-28T04:22:44;3.00;96.40
23499;DHT22;11926;48.120;11.562;2022-11-28T04:25:34;3.10;96.50
23499;DHT22;11926;48.120;11.562;2022-11-28T04:28:25;3.10;96.40
23499;DHT22;11926;48.120;11.562;2022-11-28T04:31:15;3.20;96.40
23499;DHT22;11926;48.120;11.562;2022-11-28T04:34:07;3.20;96.40
23499;DHT22;11926;48.120;11.562;2022-11-28T04:36:58;3.20;96.40
23499;DHT22;11926;48.120;11.562;2022-11-28T04:39:54;3.20;96.30
23499;DHT22;11926;48.120;11.562;2022-11-28T04:42:46;3.20;96.40
23499;DHT22;11926;48.120;11.562;2022-11-28T04:45:42;3.20;96.40
23499;DHT22;11926;48.120;11.562;2022-11-28T04:48:31;3.30;96.40
23499;DHT22;11926;48.120;11.562;2022-11-28T04:51:23;3.20;96.30
23499;DHT22;11926;48.120;11.562;2022-11-28T04:54:13;3.20;96.40
23499;DHT22;11926;48.120;11.562;2022-11-28T04:57:10;3.20;96.30
23499;DHT22;11926;48.120;11.562;2022-11-28T05:00:02;3.20;96.40
23499;DHT22;11926;48.120;11.562;2022-11-28T05:02:52;3.20;96.40
23499;DHT22;11926;48.120;11.562;2022-11-28T05:05:43;3.30;96.40
23499;DHT22;11926;48.120;11.562;2022-11-28T05:08:31;3.20;96.40
23499;DHT22;11926;48.120;11.562;2022-11-28T05:11:18;3.20;96.40
23499;DHT22;11926;48.120;11.562;2022-11-28T05:14:06;3.30;96.50
23499;DHT22;11926;48.120;11.562;2022-11-28T05:16:53;3.30;96.40
23499;DHT22;11926;48.120;11.562;2022-11-28T05:19:40;3.30;96.40
23499;DHT22;11926;48.120;11.562;2022-11-28T05:22:27;3.30;96.40
23499;DHT22;11926;48.120;11.562;2022-11-28T05:25:15;3.40;96.40
23499;DHT22;11926;48.120;11.562;2022-11-28T05:28:03;3.40;96.40
23499;DHT22;11926;48.120;11.562;2022-11-28T05:30:56;3.40;96.30
23499;DHT22;11926;48.120;11.562;2022-11-28T05:33:43;3.40;96.40
23499;DHT22;11926;48.120;11.562;2022-11-28T05:36:30;3.40;96.30
23499;DHT22;11926;48.120;11.562;2022-11-28T05:39:18;3.40;96.70
23499;DHT22;11926;48.120;11.562;2022-11-28T05:42:07;3.40;96.30
23499;DHT22;11926;48.120;11.562;2022-11-28T05:44:55;3.50;96.30
23499;DHT22;11926;48.120;11.562;2022-11-28T05:47:43;3.50;96.30
23499;DHT22;11926;48.120;11.562;2022-11-28T05:50:30;3.50;96.30
23499;DHT22;11926;48.120;11.562;2022-11-28T05:53:25;3.60;96.30
23499;DHT22;11926;48.120;11.562;2022-11-28T05:56:15;3.60;96.30
23499;DHT22;11926;48.120;11.562;2022-11-28T05:59:04;3.60;96.20
23499;DHT22;11926;48.120;11.562;2022-11-28T06:01:52;3.60;96.20
23499;DHT22;11926;48.120;11.562;2022-11-28T06:04:40;3.60;96.30
23499;DHT22;11926;48.120;11.562;2022-11-28T06:07:28;3.60;96.20
23499;DHT22;11926;48.120;11.562;2022-11-28T06:10:15;3.60;96.30
23499;DHT22;11926;48.120;11.562;2022-11-28T06:13:04;3.60;96.30
23499;DHT22;11926;48.120;11.562;2022-11-28T06:15:52;3.50;96.30
23499;DHT22;11926;48.120;11.562;2022-11-28T06:18:40;3.50;96.30
23499;DHT22;11926;48.120;11.562;2022-11-28T06:21:29;3.50;96.30
23499;DHT22;11926;48.120;11.562;2022-11-28T06:24:17;3.50;96.30
23499;DHT22;11926;48.120;11.562;2022-11-28T06:27:05;3.50;96.30
23499;DHT22;11926;48.120;11.562;2022-11-28T06:29:52;3.50;96.30
23499;DHT22;11926;48.120;11.562;2022-11-28T06:32:41;3.50;96.30
23499;DHT22;11926;48.120;11.562;2022-11-28T06:35:27;3.50;96.30
23499;DHT22;11926;48.120;11.562;2022-11-28T06:38:14;3.60;96.30
23499;DHT22;11926;48.120;11.562;2022-11-28T06:41:05;3.60;96.30
23499;DHT22;11926;48.120;11.562;2022-11-28T06:43:53;3.60;96.30
23499;DHT22;11926;48.120;11.562;2022-11-28T06:46:41;3.60;96.30
23499;DHT22;11926;48.120;11.562;2022-11-28T06:49:30;3.60;96.30
23499;DHT22;11926;48.120;11.562;2022-11-28T06:52:18;3.60;96.30
23499;DHT22;11926;48.120;11.562;2022-11-28T06:55:05;3.60;96.30
23499;DHT22;11926;48.120;11.562;2022-11-28T06:57:53;3.60;96.30
23499;DHT22;11926;48.120;11.562;2022-11-28T07:00:40;3.60;96.30
23499;DHT22;11926;48.120;11.562;2022-11-28T07:03:28;3.70;96.30
23499;DHT22;11926;48.120;11.562;2022-11-28T07:06:18;3.70;96.30
23499;DHT22;11926;48.120;11.562;2022-11-28T07:09:06;3.70;96.30
23499;DHT22;11926;48.120;11.562;2022-11-28T07:11:53;3.80;96.30
23499;DHT22;11926;48.120;11.562;2022-11-28T07:14:41;3.70;96.20
23499;DHT22;11926;48.120;11.562;2022-11-28T07:17:28;3.80;96.30
23499;DHT22;11926;48.120;11.562;2022-11-28T07:20:16;3.70;96.20
23499;DHT22;11926;48.120;11.562;2022-11-28T07:23:05;3.80;96.30
23499;DHT22;11926;48.120;11.562;2022-11-28T07:25:57;3.80;96.30
23499;DHT22;11926;48.120;11.562;2022-11-28T07:28:46;3.80;96.30
23499;DHT22;11926;48.120;11.562;2022-11-28T07:31:36;3.80;96.30
23499;DHT22;11926;48.120;11.562;2022-11-28T07:34:23;3.80;96.30
23499;DHT22;11926;48.120;11.562;2022-11-28T07:37:11;3.80;96.30
23499;DHT22;11926;48.120;11.562;2022-11-28T07:40:00;3.90;96.30
23499;DHT22;11926;48.120;11.562;2022-11-28T07:42:48;3.90;96.20
23499;DHT22;11926;48.120;11.562;2022-11-28T07:45:38;3.90;96.20
23499;DHT22;11926;48.120;11.562;2022-11-28T07:48:47;4.00;96.30
23499;DHT22;11926;48.120;11.562;2022-11-28T07:51:35;4.00;96.30
23499;DHT22;11926;48.120;11.562;2022-11-28T07:54:22;4.10;96.20
23499;DHT22;11926;48.120;11.562;2022-11-28T07:57:11;4.10;96.20
23499;DHT22;11926;48.120;11.562;2022-11-28T07:59:59;4.10;96.20
23499;DHT22;11926;48.120;11.562;2022-11-28T08:02:57;4.10;96.20
23499;DHT22;11926;48.120;11.562;2022-11-28T08:05:44;4.10;96.10
23499;DHT22;11926;48.120;11.562;2022-11-28T08:08:35;4.10;96.10
23499;DHT22;11926;48.120;11.562;2022-11-28T08:11:24;4.20;96.10
23499;DHT22;11926;48.120;11.562;2022-11-28T08:14:15;4.20;96.10
23499;DHT22;11926;48.120;11.562;2022-11-28T08:17:03;4.30;96.10
23499;DHT22;11926;48.120;11.562;2022-11-28T08:19:50;4.30;96.10
23499;DHT22;11926;48.120;11.562;2022-11-28T08:22:37;4.30;96.10
23499;DHT22;11926;48.120;11.562;2022-11-28T08:25:25;4.30;96.00
23499;DHT22;11926;48.120;11.562;2022-11-28T08:28:13;4.40;96.00
23499;DHT22;11926;48.120;11.562;2022-11-28T08:31:09;4.40;95.90
23499;DHT22;11926;48.120;11.562;2022-11-28T08:33:59;4.40;95.90
23499;DHT22;11926;48.120;11.562;2022-11-28T08:36:47;4.50;95.90
23499;DHT22;11926;48.120;11.562;2022-11-28T08:39:35;4.50;95.80
23499;DHT22;11926;48.120;11.562;2022-11-28T08:42:22;4.50;95.90
23499;DHT22;11926;48.120;11.562;2022-11-28T08:45:10;4.50;95.80
23499;DHT22;11926;48.120;11.562;2022-11-28T08:47:59;4.50;95.80
23499;DHT22;11926;48.120;11.562;2022-11-28T08:50:47;4.60;95.90
23499;DHT22;11926;48.120;11.562;2022-11-28T08:53:35;4.60;95.90
23499;DHT22;11926;48.120;11.562;2022-11-28T08:56:22;4.60;95.90
23499;DHT22;11926;48.120;11.562;2022-11-28T08:59:10;4.70;95.90
23499;DHT22;11926;48.120;11.562;2022-11-28T09:01:57;4.70;95.80
23499;DHT22;11926;48.120;11.562;2022-11-28T09:04:46;4.70;95.70
23499;DHT22;11926;48.120;11.562;2022-11-28T09:07:33;4.70;95.70
23499;DHT22;11926;48.120;11.562;2022-11-28T09:10:21;4.70;95.70
23499;DHT22;11926;48.120;11.562;2022-11-28T09:13:10;4.80;95.70
23499;DHT22;11926;48.120;11.562;2022-11-28T09:15:58;4.80;95.70
23499;DHT22;11926;48.120;11.562;2022-11-28T09:18:45;4.80;95.70
23499;DHT22;11926;48.120;11.562;2022-11-28T09:21:35;4.80;95.70
23499;DHT22;11926;48.120;11.562;2022-11-28T09:24:23;4.90;95.70
23499;DHT22;11926;48.120;11.562;2022-11-28T09:27:10;4.90;95.60
23499;DHT22;11926;48.120;11.562;2022-11-28T09:29:58;5.00;95.60
23499;DHT22;11926;48.120;11.562;2022-11-28T09:32:47;5.10;95.50
23499;DHT22;11926;48.120;11.562;2022-11-28T09:35:37;5.10;95.90
23499;DHT22;11926;48.120;11.562;2022-11-28T09:38:27;5.20;95.40
23499;DHT22;11926;48.120;11.562;2022-11-28T09:41:31;5.30;95.30
23499;DHT22;11926;48.120;11.562;2022-11-28T09:44:24;5.30;95.30
23499;DHT22;11926;48.120;11.562;2022-11-28T09:47:20;5.30;95.30
23499;DHT22;11926;48.120;11.562;2022-11-28T09:50:16;5.40;95.30
23499;DHT22;11926;48.120;11.562;2022-11-28T09:53:12;5.50;95.10
23499;DHT22;11926;48.120;11.562;2022-11-28T09:56:10;5.60;95.00
23499;DHT22;11926;48.120;11.562;2022-11-28T09:59:02;5.60;94.90
23499;DHT22;11926;48.120;11.562;2022-11-28T10:01:59;5.70;94.80
23499;DHT22;11926;48.120;11.562;2022-11-28T10:05:02;5.80;94.70
23499;DHT22;11926;48.120;11.562;2022-11-28T10:08:09;5.80;94.60
23499;DHT22;11926;48.120;11.562;2022-11-28T10:11:04;5.90;94.50
23499;DHT22;11926;48.120;11.562;2022-11-28T10:14:03;5.90;94.40
23499;DHT22;11926;48.120;11.562;2022-11-28T10:17:02;6.00;94.40
23499;DHT22;11926;48.120;11.562;2022-11-28T10:20:03;6.10;94.30
23499;DHT22;11926;48.120;11.562;2022-11-28T10:22:56;6.10;94.20
23499;DHT22;11926;48.120;11.562;2022-11-28T10:25:50;6.10;94.20
23499;DHT22;11926;48.120;11.562;2022-11-28T10:28:47;6.20;94.20
23499;DHT22;11926;48.120;11.562;2022-11-28T10:31:41;6.30;94.10
23499;DHT22;11926;48.120;11.562;2022-11-28T10:34:37;6.40;94.00
23499;DHT22;11926;48.120;11.562;2022-11-28T10:37:30;6.40;94.00
23499;DHT22;11926;48.120;11.562;2022-11-28T10:40:35;6.50;94.00
23499;DHT22;11926;48.120;11.562;2022-11-28T10:43:34;6.50;93.90
23499;DHT22;11926;48.120;11.562;2022-11-28T10:46:42;6.60;93.80
23499;DHT22;11926;48.120;11.562;2022-11-28T10:49:46;6.60;93.80
23499;DHT22;11926;48.120;11.562;2022-11-28T10:52:45;6.70;93.80
23499;DHT22;11926;48.120;11.562;2022-11-28T10:55:43;6.70;93.70
23499;DHT22;11926;48.120;11.562;2022-11-28T10:58:42;6.80;93.50
23499;DHT22;11926;48.120;11.562;2022-11-28T11:01:39;6.80;93.50
23499;DHT22;11926;48.120;11.562;2022-11-28T11:04:40;6.90;93.60
23499;DHT22;11926;48.120;11.562;2022-11-28T11:07:34;6.90;93.50
23499;DHT22;11926;48.120;11.562;2022-11-28T11:10:28;7.00;93.50
23499;DHT22;11926;48.120;11.562;2022-11-28T11:13:22;7.10;93.40
23499;DHT22;11926;48.120;11.562;2022-11-28T11:16:14;7.10;93.30
23499;DHT22;11926;48.120;11.562;2022-11-28T11:19:04;7.10;93.20
23499;DHT22;11926;48.120;11.562;2022-11-28T11:22:02;7.10;93.20
23499;DHT22;11926;48.120;11.562;2022-11-28T11:25:12;7.10;93.10
23499;DHT22;11926;48.120;11.562;2022-11-28T11:28:04;7.20;93.10
23499;DHT22;11926;48.120;11.562;2022-11-28T11:30:58;7.20;93.10
23499;DHT22;11926;48.120;11.562;2022-11-28T11:34:00;7.30;93.00
23499;DHT22;11926;48.120;11.562;2022-11-28T11:37:19;7.30;92.90
23499;DHT22;11926;48.120;11.562;2022-11-28T11:40:21;7.40;93.00
23499;DHT22;11926;48.120;11.562;2022-11-28T11:43:28;7.50;92.80
23499;DHT22;11926;48.120;11.562;2022-11-28T11:46:18;7.50;92.80
23499;DHT22;11926;48.120;11.562;2022-11-28T11:49:27;7.60;92.80
23499;DHT22;11926;48.120;11.562;2022-11-28T11:52:21;7.70;92.60
23499;DHT22;11926;48.120;11.562;2022-11-28T11:55:12;7.70;92.70
23499;DHT22;11926;48.120;11.562;2022-11-28T11:58:02;7.80;92.50
23499;DHT22;11926;48.120;11.562;2022-11-28T12:00:53;7.80;92.50
23499;DHT22;11926;48.120;11.562;2022-11-28T12:03:50;7.90;92.50
23499;DHT22;11926;48.120;11.562;2022-11-28T12:06:45;8.00;92.40
23499;DHT22;11926;48.120;11.562;2022-11-28T12:09:40;8.00;92.50
23499;DHT22;11926;48.120;11.562;2022-11-28T12:12:33;8.10;92.40
23499;DHT22;11926;48.120;11.562;2022-11-28T12:15:30;8.10;92.40
23499;DHT22;11926;48.120;11.562;2022-11-28T12:18:28;8.10;92.30
23499;DHT22;11926;48.120;11.562;2022-11-28T12:21:26;8.20;92.30
23499;DHT22;11926;48.120;11.562;2022-11-28T12:24:22;8.20;92.20
23499;DHT22;11926;48.120;11.562;2022-11-28T12:27:23;8.20;92.10
23499;DHT22;11926;48.120;11.562;2022-11-28T12:30:25;8.20;92.10
23499;DHT22;11926;48.120;11.562;2022-11-28T12:33:24;8.20;92.00
23499;DHT22;11926;48.120;11.562;2022-11-28T12:36:20;8.30;92.00
23499;DHT22;11926;48.120;11.562;2022-11-28T12:39:24;8.30;92.00
23499;DHT22;11926;48.120;11.562;2022-11-28T12:42:28;8.30;92.20
23499;DHT22;11926;48.120;11.562;2022-11-28T12:45:29;8.40;92.20
23499;DHT22;11926;48.120;11.562;2022-11-28T12:48:29;8.40;92.10
23499;DHT22;11926;48.120;11.562;2022-11-28T12:51:29;8.40;92.00
23499;DHT22;11926;48.120;11.562;2022-11-28T12:54:44;8.50;92.00
23499;DHT22;11926;48.120;11.562;2022-11-28T12:57:46;8.50;91.80
23499;DHT22;11926;48.120;11.562;2022-11-28T13:00:59;8.60;91.70
23499;DHT22;11926;48.120;11.562;2022-11-28T13:04:02;8.60;91.60
23499;DHT22;11926;48.120;11.562;2022-11-28T13:06:58;8.60;91.50
23499;DHT22;11926;48.120;11.562;2022-11-28T13:09:58;8.70;91.40
23499;DHT22;11926;48.120;11.562;2022-11-28T13:12:54;8.70;91.50
23499;DHT22;11926;48.120;11.562;2022-11-28T13:15:52;8.80;91.40
23499;DHT22;11926;48.120;11.562;2022-11-28T13:18:46;8.80;91.30
23499;DHT22;11926;48.120;11.562;2022-11-28T13:21:40;8.80;91.40
23499;DHT22;11926;48.120;11.562;2022-11-28T13:24:36;8.80;91.40
23499;DHT22;11926;48.120;11.562;2022-11-28T13:27:31;8.90;91.30
23499;DHT22;11926;48.120;11.562;2022-11-28T13:30:24;8.90;91.20
23499;DHT22;11926;48.120;11.562;2022-11-28T13:33:29;8.90;91.20
23499;DHT22;11926;48.120;11.562;2022-11-28T13:36:26;8.90;91.10
23499;DHT22;11926;48.120;11.562;2022-11-28T13:39:40;8.90;91.00
23499;DHT22;11926;48.120;11.562;2022-11-28T13:42:36;8.90;90.90
23499;DHT22;11926;48.120;11.562;2022-11-28T13:45:46;8.90;90.70
23499;DHT22;11926;48.120;11.562;2022-11-28T13:48:50;8.90;90.60
23499;DHT22;11926;48.120;11.562;2022-11-28T13:58:08;8.70;90.30
23499;DHT22;11926;48.120;11.562;2022-11-28T14:01:01;8.70;90.30
23499;DHT22;11926;48.120;11.562;2022-11-28T14:03:51;8.50;90.40
23499;DHT22;11926;48.120;11.562;2022-11-28T14:06:41;8.60;90.40
23499;DHT22;11926;48.120;11.562;2022-11-28T14:09:39;8.60;90.30
23499;DHT22;11926;48.120;11.562;2022-11-28T14:12:36;8.60;90.30
23499;DHT22;11926;48.120;11.562;2022-11-28T14:15:32;8.60;90.30
23499;DHT22;11926;48.120;11.562;2022-11-28T14:18:36;8.60;90.20
23499;DHT22;11926;48.120;11.562;2022-11-28T14:21:51;8.50;90.20
23499;DHT22;11926;48.120;11.562;2022-11-28T14:24:53;8.50;90.20
23499;DHT22;11926;48.120;11.562;2022-11-28T14:27:48;8.50;90.20
23499;DHT22;11926;48.120;11.562;2022-11-28T14:30:44;8.50;90.20
23499;DHT22;11926;48.120;11.562;2022-11-28T14:33:35;8.50;90.20
23499;DHT22;11926;48.120;11.562;2022-11-28T14:36:27;8.60;90.30
23499;DHT22;11926;48.120;11.562;2022-11-28T14:39:31;8.60;90.20
23499;DHT22;11926;48.120;11.562;2022-11-28T14:42:34;8.60;90.10
23499;DHT22;11926;48.120;11.562;2022-11-28T14:45:43;8.60;90.10
23499;DHT22;11926;48.120;11.562;2022-11-28T14:48:30;8.50;90.10
23499;DHT22;11926;48.120;11.562;2022-11-28T14:57:54;8.60;90.20
23499;DHT22;11926;48.120;11.562;2022-11-28T15:00:48;8.60;90.30
23499;DHT22;11926;48.120;11.562;2022-11-28T15:03:41;8.50;90.30
23499;DHT22;11926;48.120;11.562;2022-11-28T15:06:37;8.50;90.40
23499;DHT22;11926;48.120;11.562;2022-11-28T15:09:29;8.50;90.60
23499;DHT22;11926;48.120;11.562;2022-11-28T15:12:23;8.50;90.60
23499;DHT22;11926;48.120;11.562;2022-11-28T15:15:13;8.50;90.60
23499;DHT22;11926;48.120;11.562;2022-11-28T15:18:03;8.50;90.60
23499;DHT22;11926;48.120;11.562;2022-11-28T15:20:53;8.50;90.60
23499;DHT22;11926;48.120;11.562;2022-11-28T15:23:45;8.50;90.60
23499;DHT22;11926;48.120;11.562;2022-11-28T15:26:32;8.50;90.60
23499;DHT22;11926;48.120;11.562;2022-11-28T15:29:22;8.50;90.80
23499;DHT22;11926;48.120;11.562;2022-11-28T15:32:13;8.50;91.00
23499;DHT22;11926;48.120;11.562;2022-11-28T15:35:04;8.50;91.00
23499;DHT22;11926;48.120;11.562;2022-11-28T15:37:58;8.50;91.10
23499;DHT22;11926;48.120;11.562;2022-11-28T15:40:49;8.50;91.10
23499;DHT22;11926;48.120;11.562;2022-11-28T15:43:37;8.50;91.10
23499;DHT22;11926;48.120;11.562;2022-11-28T15:46:30;8.40;91.30
23499;DHT22;11926;48.120;11.562;2022-11-28T15:49:23;8.40;91.20
23499;DHT22;11926;48.120;11.562;2022-11-28T15:52:15;8.40;91.40
23499;DHT22;11926;48.120;11.562;2022-11-28T15:55:13;8.40;91.50
23499;DHT22;11926;48.120;11.562;2022-11-28T15:58:18;8.40;91.60
23499;DHT22;11926;48.120;11.562;2022-11-28T16:01:11;8.40;91.70
23499;DHT22;11926;48.120;11.562;2022-11-28T16:04:03;8.30;91.70
23499;DHT22;11926;48.120;11.562;2022-11-28T16:06:55;8.30;91.80
23499;DHT22;11926;48.120;11.562;2022-11-28T16:09:54;8.30;91.90
23499;DHT22;11926;48.120;11.562;2022-11-28T16:12:43;8.30;91.90
23499;DHT22;11926;48.120;11.562;2022-11-28T16:15:32;8.30;92.00
23499;DHT22;11926;48.120;11.562;2022-11-28T16:18:19;8.30;92.10
23499;DHT22;11926;48.120;11.562;2022-11-28T16:21:11;8.20;92.10
23499;DHT22;11926;48.120;11.562;2022-11-28T16:23:59;8.20;92.10
23499;DHT22;11926;48.120;11.562;2022-11-28T16:26:53;8.20;92.10
23499;DHT22;11926;48.120;11.562;2022-11-28T16:29:44;8.20;92.20
23499;DHT22;11926;48.120;11.562;2022-11-28T16:32:36;8.20;92.30
23499;DHT22;11926;48.120;11.562;2022-11-28T16:35:26;8.20;92.40
23499;DHT22;11926;48.120;11.562;2022-11-28T16:38:17;8.10;92.30
23499;DHT22;11926;48.120;11.562;2022-11-28T16:41:04;8.10;92.20
23499;DHT22;11926;48.120;11.562;2022-11-28T16:43:53;8.10;92.40
23499;DHT22;11926;48.120;11.562;2022-11-28T16:46:49;8.10;92.40
23499;DHT22;11926;48.120;11.562;2022-11-28T16:49:39;8.00;92.50
23499;DHT22;11926;48.120;11.562;2022-11-28T16:52:45;8.00;92.50
23499;DHT22;11926;48.120;11.562;2022-11-28T16:55:39;8.00;92.90
23499;DHT22;11926;48.120;11.562;2022-11-28T16:58:26;8.00;92.50
23499;DHT22;11926;48.120;11.562;2022-11-28T17:01:13;8.00;92.50
23499;DHT22;11926;48.120;11.562;2022-11-28T17:04:01;8.00;92.50
23499;DHT22;11926;48.120;11.562;2022-11-28T17:06:52;7.90;92.60
23499;DHT22;11926;48.120;11.562;2022-11-28T17:09:40;7.90;92.60
23499;DHT22;11926;48.120;11.562;2022-11-28T17:12:29;7.90;92.60
23499;DHT22;11926;48.120;11.562;2022-11-28T17:15:20;8.00;92.70
23499;DHT22;11926;48.120;11.562;2022-11-28T17:18:08;8.00;92.80
23499;DHT22;11926;48.120;11.562;2022-11-28T17:20:55;8.00;92.80
23499;DHT22;11926;48.120;11.562;2022-11-28T17:23:44;8.00;92.80
23499;DHT22;11926;48.120;11.562;2022-11-28T17:26:31;8.00;92.80
23499;DHT22;11926;48.120;11.562;2022-11-28T17:29:20;8.00;92.80
23499;DHT22;11926;48.120;11.562;2022-11-28T17:32:10;8.00;92.80
23499;DHT22;11926;48.120;11.562;2022-11-28T17:34:58;7.90;92.80
23499;DHT22;11926;48.120;11.562;2022-11-28T17:37:48;7.90;92.90
23499;DHT22;11926;48.120;11.562;2022-11-28T17:40:37;7.90;92.90
23499;DHT22;11926;48.120;11.562;2022-11-28T17:43:27;7.90;93.00
23499;DHT22;11926;48.120;11.562;2022-11-28T17:46:21;7.90;93.00
23499;DHT22;11926;48.120;11.562;2022-11-28T17:49:08;7.90;93.10
23499;DHT22;11926;48.120;11.562;2022-11-28T17:51:57;7.90;93.10
23499;DHT22;11926;48.120;11.562;2022-11-28T17:54:44;8.00;93.10
23499;DHT22;11926;48.120;11.562;2022-11-28T17:57:33;8.00;93.10
23499;DHT22;11926;48.120;11.562;2022-11-28T18:00:20;8.00;93.10
23499;DHT22;11926;48.120;11.562;2022-11-28T18:03:07;8.00;93.10
23499;DHT22;11926;48.120;11.562;2022-11-28T18:05:55;8.00;93.10
23499;DHT22;11926;48.120;11.562;2022-11-28T18:08:42;8.00;93.20
23499;DHT22;11926;48.120;11.562;2022-11-28T18:11:29;8.00;93.20
23499;DHT22;11926;48.120;11.562;2022-11-28T18:14:18;8.00;93.20
23499;DHT22;11926;48.120;11.562;2022-11-28T18:17:05;8.00;93.30
23499;DHT22;11926;48.120;11.562;2022-11-28T18:19:52;8.00;93.40
23499;DHT22;11926;48.120;11.562;2022-11-28T18:22:42;8.00;93.40
23499;DHT22;11926;48.120;11.562;2022-11-28T18:25:30;8.00;93.40
23499;DHT22;11926;48.120;11.562;2022-11-28T18:28:18;8.00;93.50